Terminal Aerodrome Forecast
Issued by NWS

Home | Current Version | Previous Version | Text Only | Print | Product List | Glossary Off
Versions: 1 2 3 4 5 6 7 8 9 10 11 12 13 14 15 16 17 18 19 20 21 22 23 24 25 26 27 28 29

000
FTUS45 KGGW 180800 AAA
TAFOLF
TAF AMD
KOLF 180820Z 1808/1906 VRB03KT P6SM SCT006 SCT200
      TEMPO 1808/1812 00000KT BKN006
     FM181400 26010KT P6SM VCSH BKN040 OVC070
     FM181700 30019G29KT 5SM BLSN VCSH SCT020 OVC040
     FM190100 32013KT 6SM BR VCSH OVC020=

USA.gov is the U.S. government's official web portal to all federal, state and local government web resources and services.